createdAt,value
2023-04-27T00:01:29.382Z,8.55
2023-04-27T00:03:57.853Z,5.60
2023-04-27T00:06:27.761Z,7.78
2023-04-27T00:08:55.758Z,8.27
2023-04-27T00:11:24.110Z,8.43
2023-04-27T00:13:52.130Z,9.43
2023-04-27T00:16:20.201Z,10.90
2023-04-27T00:18:48.555Z,9.52
2023-04-27T00:21:16.615Z,8.45
2023-04-27T00:23:44.919Z,9.05
2023-04-27T00:26:13.186Z,11.55
2023-04-27T00:28:41.804Z,11.82
2023-04-27T00:31:09.820Z,10.88
2023-04-27T00:33:38.139Z,10.40
2023-04-27T00:36:07.011Z,9.38
2023-04-27T00:38:34.908Z,9.45
2023-04-27T00:41:04.540Z,10.30
2023-04-27T00:43:33.026Z,8.90
2023-04-27T00:46:01.282Z,5.68
2023-04-27T00:48:29.577Z,8.18
2023-04-27T00:50:57.678Z,11.05
2023-04-27T00:53:25.961Z,10.57
2023-04-27T00:55:55.834Z,12.82
2023-04-27T00:58:23.698Z,10.20
2023-04-27T01:00:51.776Z,11.30
2023-04-27T01:03:20.426Z,11.05
2023-04-27T01:05:48.435Z,10.40
2023-04-27T01:08:16.444Z,5.80
2023-04-27T01:10:45.027Z,10.25
2023-04-27T01:13:13.362Z,10.80
2023-04-27T01:15:41.744Z,5.37
2023-04-27T01:18:11.101Z,5.32
2023-04-27T01:20:39.178Z,7.45
2023-04-27T01:23:07.281Z,9.75
2023-04-27T01:25:36.718Z,9.02
2023-04-27T01:28:04.837Z,6.95
2023-04-27T01:30:32.846Z,10.65
2023-04-27T01:33:01.476Z,10.95
2023-04-27T01:35:29.450Z,11.43
2023-04-27T01:38:02.001Z,12.65
2023-04-27T01:40:30.413Z,14.13
2023-04-27T01:42:58.424Z,13.02
2023-04-27T01:45:26.549Z,9.18
2023-04-27T01:47:54.942Z,7.72
2023-04-27T01:50:22.978Z,9.32
2023-04-27T01:52:50.805Z,9.60
2023-04-27T01:55:19.150Z,10.52
2023-04-27T01:57:48.182Z,7.00
2023-04-27T02:00:16.271Z,10.18
2023-04-27T02:02:51.530Z,6.32
2023-04-27T02:05:20.768Z,8.18
2023-04-27T02:07:49.873Z,9.20
2023-04-27T02:10:17.680Z,10.35
2023-04-27T02:12:49.114Z,9.98
2023-04-27T02:15:17.341Z,10.48
2023-04-27T02:17:45.920Z,6.87
2023-04-27T02:20:15.008Z,5.90
2023-04-27T02:22:44.824Z,8.23
2023-04-27T02:25:13.892Z,8.75
2023-04-27T02:27:43.995Z,9.90
2023-04-27T02:30:12.697Z,9.63
2023-04-27T02:32:42.191Z,6.82
2023-04-27T02:35:14.136Z,6.68
2023-04-27T02:37:42.503Z,4.28
2023-04-27T02:40:10.917Z,5.22
2023-04-27T02:42:39.321Z,7.87
2023-04-27T02:45:08.573Z,8.55
2023-04-27T02:47:37.995Z,8.55
2023-04-27T02:50:07.871Z,8.15
2023-04-27T02:52:36.417Z,9.57
2023-04-27T02:55:04.479Z,8.63
2023-04-27T02:57:34.519Z,9.98
2023-04-27T03:00:03.736Z,5.82
2023-04-27T03:02:33.389Z,5.75
2023-04-27T03:05:01.867Z,5.40
2023-04-27T03:07:31.958Z,5.22
2023-04-27T03:10:00.367Z,6.60
2023-04-27T03:12:31.912Z,8.55
2023-04-27T03:15:01.369Z,6.93
2023-04-27T03:17:33.146Z,9.23
2023-04-27T03:20:01.608Z,9.27
2023-04-27T03:22:31.548Z,6.22
2023-04-27T03:24:59.537Z,10.27
2023-04-27T03:27:27.867Z,10.35
2023-04-27T03:29:56.072Z,8.95
2023-04-27T03:32:24.084Z,8.25
2023-04-27T03:34:52.671Z,9.25
2023-04-27T03:37:20.686Z,5.72
2023-04-27T03:39:48.680Z,8.35
2023-04-27T03:42:17.181Z,9.70
2023-04-27T03:44:45.188Z,8.65
2023-04-27T03:47:13.100Z,10.50
2023-04-27T03:49:42.653Z,10.70
2023-04-27T03:52:10.644Z,10.93
2023-04-27T03:54:38.588Z,9.98
2023-04-27T03:57:06.908Z,9.55
2023-04-27T03:59:34.946Z,6.57
2023-04-27T04:02:05.971Z,6.90
2023-04-27T04:04:34.909Z,5.95
2023-04-27T04:07:03.564Z,5.60
2023-04-27T04:09:31.439Z,6.00
2023-04-27T04:11:59.715Z,6.87
2023-04-27T04:14:28.430Z,4.32
2023-04-27T04:16:58.357Z,5.22
2023-04-27T04:19:26.690Z,6.32
2023-04-27T04:21:55.097Z,4.43
2023-04-27T04:24:25.831Z,4.93
2023-04-27T04:26:55.295Z,4.72
2023-04-27T04:29:24.193Z,3.53
2023-04-27T04:31:53.173Z,5.78
2023-04-27T04:34:22.160Z,4.22
2023-04-27T04:36:56.973Z,4.97
2023-04-27T04:39:25.422Z,4.60
2023-04-27T04:41:53.563Z,4.75
2023-04-27T04:44:22.556Z,4.15
2023-04-27T04:46:51.550Z,4.30
2023-04-27T04:49:19.612Z,4.20
2023-04-27T04:51:47.751Z,4.70
2023-04-27T04:54:16.357Z,5.03
2023-04-27T04:56:44.365Z,3.72
2023-04-27T04:59:12.504Z,4.07
2023-04-27T05:01:41.185Z,4.10
2023-04-27T05:04:09.363Z,5.10
2023-04-27T05:06:44.400Z,6.00
2023-04-27T05:09:14.209Z,5.50
2023-04-27T05:11:42.624Z,3.58
2023-04-27T05:14:10.480Z,4.53
2023-04-27T05:16:38.870Z,4.15
2023-04-27T05:19:06.934Z,4.20
2023-04-27T05:21:35.022Z,3.70
2023-04-27T05:24:03.478Z,3.97
2023-04-27T05:26:31.485Z,4.12
2023-04-27T05:28:59.504Z,3.67
2023-04-27T05:31:28.366Z,3.53
2023-04-27T05:33:56.450Z,3.00
2023-04-27T05:36:24.502Z,3.35
2023-04-27T05:38:52.931Z,3.37
2023-04-27T05:41:21.009Z,4.22
2023-04-27T05:43:48.927Z,3.75
2023-04-27T05:46:17.370Z,4.82
2023-04-27T05:48:45.316Z,3.17
2023-04-27T05:51:13.403Z,3.10
2023-04-27T05:53:41.649Z,2.75
2023-04-27T05:56:12.164Z,3.22
2023-04-27T05:58:40.332Z,3.42
2023-04-27T06:01:08.938Z,3.15
2023-04-27T06:03:37.353Z,3.50
2023-04-27T06:06:05.830Z,2.78
2023-04-27T06:08:36.127Z,2.95
2023-04-27T06:11:04.550Z,2.58
2023-04-27T06:13:33.655Z,3.78
2023-04-27T06:16:02.335Z,2.72
2023-04-27T06:18:31.265Z,3.85
2023-04-27T06:21:01.387Z,3.00
2023-04-27T06:23:29.743Z,3.80
2023-04-27T06:25:59.100Z,2.53
2023-04-27T06:28:27.210Z,3.42
2023-04-27T06:30:55.587Z,3.05
2023-04-27T06:33:23.839Z,3.70
2023-04-27T06:36:03.920Z,2.78
2023-04-27T06:38:32.823Z,2.75
2023-04-27T06:41:01.191Z,3.22
2023-04-27T06:43:29.912Z,2.47
2023-04-27T06:45:58.523Z,3.15
2023-04-27T06:48:38.779Z,3.00
2023-04-27T06:51:07.094Z,3.40
2023-04-27T06:53:35.162Z,3.08
2023-04-27T06:56:03.972Z,3.33
2023-04-27T06:58:32.279Z,2.60
2023-04-27T07:01:00.607Z,3.20
2023-04-27T07:03:28.699Z,2.17
2023-04-27T07:05:57.742Z,2.70
2023-04-27T07:08:25.769Z,3.42
2023-04-27T07:10:53.730Z,4.30
2023-04-27T07:13:22.332Z,5.80
2023-04-27T07:16:02.762Z,7.07
2023-04-27T07:18:31.185Z,7.87
2023-04-27T07:20:59.212Z,10.18
2023-04-27T07:23:27.588Z,7.82
2023-04-27T07:25:56.028Z,5.90
2023-04-27T07:28:24.082Z,6.62
2023-04-27T07:30:52.330Z,6.10
2023-04-27T07:33:20.706Z,4.50
2023-04-27T07:35:50.637Z,3.75
2023-04-27T07:38:18.838Z,4.05
2023-04-27T07:40:47.510Z,4.05
2023-04-27T07:43:16.119Z,2.65
2023-04-27T07:45:58.713Z,2.70
2023-04-27T07:48:29.045Z,2.22
2023-04-27T07:51:09.065Z,2.20
2023-04-27T07:53:37.851Z,2.30
2023-04-27T07:56:07.081Z,2.28
2023-04-27T07:58:34.987Z,2.37
2023-04-27T08:01:03.195Z,2.60
2023-04-27T08:03:43.695Z,2.30
2023-04-27T08:06:12.347Z,2.20
2023-04-27T08:08:40.812Z,2.60
2023-04-27T08:11:12.697Z,2.10
2023-04-27T08:16:08.653Z,2.03
2023-04-27T08:18:48.667Z,2.17
2023-04-27T08:21:17.159Z,2.40
2023-04-27T08:23:45.133Z,2.37
2023-04-27T08:26:16.935Z,2.53
2023-04-27T08:28:45.484Z,2.35
2023-04-27T08:31:13.470Z,2.37
2023-04-27T08:33:54.837Z,2.50
2023-04-27T08:36:32.889Z,2.60
2023-04-27T08:39:13.311Z,2.35
2023-04-27T08:41:44.220Z,2.00
2023-04-27T08:44:12.126Z,2.70
2023-04-27T08:46:40.218Z,2.42
2023-04-27T08:49:10.155Z,2.53
2023-04-27T08:51:38.005Z,2.80
2023-04-27T08:54:06.103Z,2.28
2023-04-27T08:56:34.750Z,2.12
2023-04-27T08:59:04.886Z,2.78
2023-04-27T09:01:34.526Z,2.70
2023-04-27T09:04:03.313Z,2.92
2023-04-27T09:06:33.543Z,3.35
2023-04-27T09:09:02.819Z,3.30
2023-04-27T09:11:51.697Z,2.72
2023-04-27T09:14:36.432Z,2.30
2023-04-27T09:17:04.831Z,2.80
2023-04-27T09:19:47.646Z,2.55
2023-04-27T09:22:16.303Z,3.15
2023-04-27T09:24:52.663Z,3.10
2023-04-27T09:27:22.444Z,2.92
2023-04-27T09:30:02.275Z,3.00
2023-04-27T09:32:32.080Z,2.30
2023-04-27T09:34:59.929Z,2.58
2023-04-27T09:37:28.020Z,2.47
2023-04-27T09:39:56.734Z,3.87
2023-04-27T09:42:24.908Z,2.90
2023-04-27T09:45:07.165Z,3.22
2023-04-27T09:47:36.802Z,2.70
2023-04-27T09:50:06.650Z,3.03
2023-04-27T09:52:34.495Z,3.33
2023-04-27T09:55:06.027Z,3.25
2023-04-27T09:57:56.242Z,3.20
2023-04-27T10:01:02.604Z,2.60
2023-04-27T10:03:47.978Z,2.42
2023-04-27T10:06:51.449Z,2.87
2023-04-27T10:09:27.442Z,2.70
2023-04-27T10:11:55.968Z,3.40
2023-04-27T10:14:25.247Z,2.87
2023-04-27T10:16:55.578Z,2.95
2023-04-27T10:19:25.161Z,3.00
2023-04-27T10:22:05.695Z,2.55
2023-04-27T10:24:44.435Z,2.40
2023-04-27T10:27:28.798Z,2.70
2023-04-27T10:29:56.837Z,2.65
2023-04-27T10:32:26.733Z,2.37
2023-04-27T10:35:06.692Z,2.53
2023-04-27T10:37:44.519Z,2.30
2023-04-27T10:40:19.744Z,3.10
2023-04-27T10:43:08.637Z,2.47
2023-04-27T10:45:36.676Z,2.45
2023-04-27T10:48:06.381Z,2.70
2023-04-27T10:50:35.192Z,3.08
2023-04-27T10:53:06.493Z,2.53
2023-04-27T10:55:36.482Z,2.50
2023-04-27T10:58:04.858Z,2.08
2023-04-27T11:00:42.047Z,3.55
2023-04-27T11:03:24.427Z,2.65
2023-04-27T11:06:05.000Z,2.70
2023-04-27T11:08:36.738Z,2.90
2023-04-27T11:11:06.478Z,2.80
2023-04-27T11:13:35.239Z,3.00
2023-04-27T11:16:05.796Z,2.60
2023-04-27T11:18:38.180Z,3.15
2023-04-27T11:21:12.101Z,6.25
2023-04-27T11:23:41.269Z,5.40
2023-04-27T11:26:15.196Z,4.80
2023-04-27T11:29:00.430Z,5.95
2023-04-27T11:31:38.803Z,4.87
2023-04-27T11:34:08.522Z,5.75
2023-04-27T11:36:37.034Z,6.05
2023-04-27T11:39:06.802Z,5.57
2023-04-27T11:41:37.157Z,3.40
2023-04-27T11:44:07.914Z,3.90
2023-04-27T11:46:37.253Z,3.55
2023-04-27T11:49:06.971Z,3.90
2023-04-27T11:51:36.558Z,3.47
2023-04-27T11:54:08.533Z,5.03
2023-04-27T11:57:07.494Z,4.12
2023-04-27T11:59:35.849Z,4.60
2023-04-27T12:02:16.076Z,3.10
2023-04-27T12:04:56.794Z,3.00
2023-04-27T12:07:24.850Z,4.43
2023-04-27T12:10:05.202Z,5.57
2023-04-27T12:12:35.166Z,3.08
2023-04-27T12:15:03.894Z,2.87
2023-04-27T12:17:34.909Z,3.00
2023-04-27T12:20:03.403Z,2.85
2023-04-27T12:22:35.126Z,2.50
2023-04-27T12:25:15.709Z,3.55
2023-04-27T12:27:44.355Z,3.20
2023-04-27T12:30:15.062Z,2.62
2023-04-27T12:32:43.310Z,3.47
2023-04-27T12:35:11.469Z,2.42
2023-04-27T12:37:39.810Z,2.60
2023-04-27T12:40:09.357Z,2.30
2023-04-27T12:42:37.166Z,2.37
2023-04-27T12:45:05.880Z,2.55
2023-04-27T12:52:34.343Z,2.47
2023-04-27T12:55:02.262Z,1.95
2023-04-27T12:57:31.830Z,2.42
2023-04-27T13:00:12.152Z,2.45
2023-04-27T13:02:40.695Z,1.98
2023-04-27T13:07:55.833Z,2.50
2023-04-27T13:10:23.705Z,2.03
2023-04-27T13:13:04.251Z,2.60
2023-04-27T13:15:32.147Z,3.42
2023-04-27T13:18:00.513Z,1.77
2023-04-27T13:20:28.676Z,1.70
2023-04-27T13:22:56.735Z,1.92
2023-04-27T13:25:24.753Z,2.25
2023-04-27T13:27:54.286Z,3.00
2023-04-27T13:30:34.178Z,2.65
2023-04-27T13:33:14.642Z,2.10
2023-04-27T13:36:02.759Z,2.30
2023-04-27T13:38:31.185Z,1.90
2023-04-27T13:41:11.118Z,2.17
2023-04-27T13:43:39.706Z,1.90
2023-04-27T13:46:07.894Z,2.30
2023-04-27T13:48:35.906Z,2.80
2023-04-27T13:51:04.454Z,1.62
2023-04-27T13:53:56.481Z,2.20
2023-04-27T13:56:24.963Z,2.20
2023-04-27T13:58:52.963Z,2.17
2023-04-27T14:01:20.858Z,1.90
2023-04-27T14:03:49.552Z,2.20
2023-04-27T14:06:17.532Z,2.35
2023-04-27T14:08:45.687Z,1.95
2023-04-27T14:11:14.542Z,2.90
2023-04-27T14:13:42.511Z,2.00
2023-04-27T14:16:29.047Z,2.85
2023-04-27T14:18:57.595Z,3.20
2023-04-27T14:21:26.357Z,2.60
2023-04-27T14:23:54.425Z,2.30
2023-04-27T14:26:22.697Z,1.83
2023-04-27T14:28:51.295Z,2.30
2023-04-27T14:31:19.179Z,2.40
2023-04-27T14:33:48.424Z,3.22
2023-04-27T14:36:29.288Z,3.78
2023-04-27T14:38:57.561Z,2.67
2023-04-27T14:41:25.404Z,2.42
2023-04-27T14:43:53.782Z,3.10
2023-04-27T14:46:53.588Z,2.75
2023-04-27T14:49:22.073Z,2.92
2023-04-27T14:51:50.616Z,2.85
2023-04-27T14:54:18.608Z,2.85
2023-04-27T14:56:47.017Z,2.83
2023-04-27T14:59:15.781Z,3.10
2023-04-27T15:01:44.054Z,2.72
2023-04-27T15:04:12.841Z,2.60
2023-04-27T15:06:41.671Z,3.03
2023-04-27T15:09:14.072Z,2.50
2023-04-27T15:11:42.877Z,3.00
2023-04-27T15:14:12.496Z,3.30
2023-04-27T15:16:40.482Z,3.35
2023-04-27T15:19:09.003Z,3.95
2023-04-27T15:21:51.580Z,3.60
2023-04-27T15:24:20.519Z,3.83
2023-04-27T15:26:48.944Z,3.85
2023-04-27T15:29:29.241Z,3.70
2023-04-27T15:31:57.614Z,3.33
2023-04-27T15:34:25.797Z,3.42
2023-04-27T15:36:53.669Z,3.12
2023-04-27T15:39:22.101Z,3.28
2023-04-27T15:41:50.093Z,2.95
2023-04-27T15:44:18.206Z,3.03
2023-04-27T15:46:58.885Z,2.87
2023-04-27T15:49:26.830Z,3.30
2023-04-27T15:52:07.627Z,3.28
2023-04-27T15:54:35.998Z,3.60
2023-04-27T15:57:04.551Z,2.72
2023-04-27T16:00:17.283Z,3.08
2023-04-27T16:02:46.792Z,3.90
2023-04-27T16:05:26.937Z,6.05
2023-04-27T16:07:55.261Z,7.10
2023-04-27T16:10:23.248Z,5.62
2023-04-27T16:12:51.310Z,4.25
2023-04-27T16:15:19.929Z,4.62
2023-04-27T16:17:48.049Z,4.47
2023-04-27T16:20:16.040Z,4.15
2023-04-27T16:22:44.540Z,5.47
2023-04-27T16:25:12.592Z,6.55
2023-04-27T16:27:40.830Z,5.00
2023-04-27T16:30:09.566Z,4.78
2023-04-27T16:32:41.286Z,5.75
2023-04-27T16:35:10.146Z,5.55
2023-04-27T16:37:38.638Z,5.47
2023-04-27T16:40:08.756Z,5.53
2023-04-27T16:42:38.699Z,5.70
2023-04-27T16:45:10.515Z,6.45
2023-04-27T16:47:39.281Z,5.90
2023-04-27T16:50:07.471Z,5.78
2023-04-27T16:52:35.547Z,7.32
2023-04-27T16:55:03.918Z,6.85
2023-04-27T16:57:31.983Z,6.28
2023-04-27T17:00:01.882Z,7.45
2023-04-27T17:02:35.576Z,8.32
2023-04-27T17:05:04.855Z,7.65
2023-04-27T17:07:39.338Z,7.50
2023-04-27T17:10:09.548Z,7.97
2023-04-27T17:12:40.948Z,9.38
2023-04-27T17:15:11.094Z,10.40
2023-04-27T17:17:39.821Z,9.45
2023-04-27T17:20:09.841Z,10.48
2023-04-27T17:22:38.288Z,9.82
2023-04-27T17:25:07.159Z,8.80
2023-04-27T17:27:35.160Z,7.80
2023-04-27T17:30:03.317Z,8.80
2023-04-27T17:32:33.131Z,9.20
2023-04-27T17:35:01.166Z,10.40
2023-04-27T17:37:49.412Z,11.38
2023-04-27T17:40:36.043Z,12.50
2023-04-27T17:43:16.046Z,11.30
2023-04-27T17:45:44.939Z,13.27
2023-04-27T17:48:16.672Z,11.68
2023-04-27T17:50:44.955Z,14.30
2023-04-27T17:53:13.579Z,14.23
2023-04-27T17:55:45.687Z,12.65
2023-04-27T17:58:14.818Z,11.75
2023-04-27T18:00:44.409Z,10.75
2023-04-27T18:03:13.558Z,10.52
2023-04-27T18:05:41.839Z,11.02
2023-04-27T18:08:09.964Z,10.15
2023-04-27T18:10:38.639Z,10.00
2023-04-27T18:13:09.809Z,11.52
2023-04-27T18:15:39.219Z,10.65
2023-04-27T18:18:07.405Z,11.00
2023-04-27T18:20:35.521Z,10.60
2023-04-27T18:23:04.014Z,11.00
2023-04-27T18:25:34.490Z,12.20
2023-04-27T18:28:05.954Z,13.15
2023-04-27T18:30:34.504Z,13.38
2023-04-27T18:33:05.625Z,13.62
2023-04-27T18:35:33.783Z,15.57
2023-04-27T18:38:02.160Z,15.45
2023-04-27T18:40:30.218Z,15.38
2023-04-27T18:42:58.501Z,14.55
2023-04-27T18:45:27.387Z,14.27
2023-04-27T18:47:56.032Z,17.73
2023-04-27T18:50:24.656Z,15.93
2023-04-27T18:52:54.368Z,16.80
2023-04-27T18:55:23.111Z,16.55
2023-04-27T18:57:51.450Z,14.68
2023-04-27T19:00:20.390Z,15.60
2023-04-27T19:02:48.895Z,15.10
2023-04-27T19:05:17.434Z,15.00
2023-04-27T19:07:46.007Z,15.45
2023-04-27T19:10:14.404Z,14.32
2023-04-27T19:12:42.708Z,12.93
2023-04-27T19:15:12.581Z,14.23
2023-04-27T19:17:41.320Z,12.02
2023-04-27T19:20:10.460Z,12.65
2023-04-27T19:22:39.245Z,12.90
2023-04-27T19:25:10.008Z,12.23
2023-04-27T19:27:39.457Z,13.27
2023-04-27T19:30:20.169Z,13.20
2023-04-27T19:32:58.726Z,13.88
2023-04-27T19:35:27.792Z,14.82
2023-04-27T19:37:56.330Z,16.42
2023-04-27T19:40:24.541Z,14.70
2023-04-27T19:42:52.560Z,16.05
2023-04-27T19:45:22.579Z,16.10
2023-04-27T19:47:50.902Z,15.70
2023-04-27T19:50:18.759Z,16.80
2023-04-27T19:52:59.619Z,15.93
2023-04-27T19:55:40.797Z,15.77
2023-04-27T19:58:09.252Z,14.45
2023-04-27T20:00:37.193Z,13.25
2023-04-27T20:03:08.360Z,12.75
2023-04-27T20:05:37.863Z,12.70
2023-04-27T20:08:06.677Z,12.90
2023-04-27T20:10:34.748Z,12.07
2023-04-27T20:13:02.725Z,10.80
2023-04-27T20:15:31.358Z,12.48
2023-04-27T20:17:59.539Z,11.10
2023-04-27T20:20:28.329Z,11.80
2023-04-27T20:22:56.996Z,12.43
2023-04-27T20:25:26.213Z,11.90
2023-04-27T20:27:54.430Z,11.77
2023-04-27T20:30:22.817Z,11.65
2023-04-27T20:32:50.859Z,10.88
2023-04-27T20:35:18.994Z,11.65
2023-04-27T20:37:47.485Z,10.85
2023-04-27T20:40:18.024Z,9.88
2023-04-27T20:42:46.541Z,10.68
2023-04-27T20:45:14.856Z,10.30
2023-04-27T20:47:43.022Z,10.88
2023-04-27T20:50:11.246Z,10.77
2023-04-27T20:52:39.632Z,10.70
2023-04-27T20:55:07.902Z,10.50
2023-04-27T20:57:36.018Z,10.95
2023-04-27T21:00:04.693Z,10.73
2023-04-27T21:02:33.894Z,10.00
2023-04-27T21:05:02.465Z,10.35
2023-04-27T21:07:31.996Z,10.60
2023-04-27T21:10:06.301Z,10.10
2023-04-27T21:12:35.199Z,9.27
2023-04-27T21:15:03.593Z,9.63
2023-04-27T21:17:34.432Z,10.70
2023-04-27T21:20:02.760Z,9.25
2023-04-27T21:22:33.179Z,10.82
2023-04-27T21:25:01.598Z,9.82
2023-04-27T21:27:32.512Z,9.02
2023-04-27T21:30:00.545Z,9.60
2023-04-27T21:32:29.651Z,8.60
2023-04-27T21:34:58.027Z,9.35
2023-04-27T21:37:26.229Z,9.27
2023-04-27T21:39:54.071Z,8.95
2023-04-27T21:42:22.270Z,9.88
2023-04-27T21:44:50.198Z,9.60
2023-04-27T21:47:18.083Z,9.00
2023-04-27T21:49:46.550Z,8.57
2023-04-27T21:52:14.583Z,9.70
2023-04-27T21:54:42.591Z,8.73
2023-04-27T21:57:11.028Z,10.13
2023-04-27T21:59:39.177Z,10.15
2023-04-27T22:02:07.222Z,10.10
2023-04-27T22:04:38.660Z,9.38
2023-04-27T22:07:08.394Z,10.43
2023-04-27T22:09:37.015Z,10.25
2023-04-27T22:12:05.338Z,12.13
2023-04-27T22:14:33.693Z,11.02
2023-04-27T22:17:02.271Z,10.18
2023-04-27T22:19:30.824Z,10.15
2023-04-27T22:21:58.923Z,9.68
2023-04-27T22:24:27.446Z,10.13
2023-04-27T22:26:55.475Z,9.65
2023-04-27T22:29:23.599Z,10.65
2023-04-27T22:31:52.473Z,10.00
2023-04-27T22:34:20.686Z,9.68
2023-04-27T22:36:48.865Z,10.32
2023-04-27T22:39:17.476Z,9.50
2023-04-27T22:41:46.590Z,9.32
2023-04-27T22:44:14.933Z,9.18
2023-04-27T22:46:44.535Z,9.50
2023-04-27T22:49:12.604Z,10.25
2023-04-27T22:51:40.629Z,9.55
2023-04-27T22:54:09.223Z,9.73
2023-04-27T22:56:37.297Z,10.00
2023-04-27T22:59:05.306Z,9.05
2023-04-27T23:01:33.813Z,10.02
2023-04-27T23:04:02.443Z,7.47
2023-04-27T23:06:30.663Z,9.77
2023-04-27T23:08:59.443Z,7.97
2023-04-27T23:11:28.155Z,9.15
2023-04-27T23:13:57.760Z,8.80
2023-04-27T23:16:26.298Z,10.15
2023-04-27T23:18:54.441Z,9.25
2023-04-27T23:21:22.524Z,9.75
2023-04-27T23:23:51.275Z,9.63
2023-04-27T23:26:19.313Z,9.88
2023-04-27T23:28:48.536Z,10.10
2023-04-27T23:31:17.163Z,10.85
2023-04-27T23:33:45.085Z,10.25
2023-04-27T23:36:13.128Z,7.12
2023-04-27T23:38:41.599Z,10.63
2023-04-27T23:41:09.875Z,10.73
2023-04-27T23:43:37.943Z,11.12
2023-04-27T23:46:06.598Z,10.88
2023-04-27T23:48:34.739Z,12.00
2023-04-27T23:51:04.890Z,10.75
2023-04-27T23:53:33.326Z,11.90
2023-04-27T23:56:01.376Z,10.68
2023-04-27T23:58:29.643Z,11.45
